sensor_id;sensor_type;location;lat;lon;timestamp;pressure;altitude;pressure_sealevel;temperature;humidity
32033;BME280;31720;52.638;9.216;2023-07-24T00:01:08;100164.13;;;17.67;100.00
32033;BME280;31720;52.638;9.216;2023-07-24T00:04:09;100166.34;;;17.72;100.00
32033;BME280;31720;52.638;9.216;2023-07-24T00:07:11;100172.78;;;17.69;100.00
32033;BME280;31720;52.638;9.216;2023-07-24T00:10:14;100164.13;;;17.77;100.00
32033;BME280;31720;52.638;9.216;2023-07-24T00:13:15;100167.06;;;17.74;100.00
32033;BME280;31720;52.638;9.216;2023-07-24T00:16:16;100160.03;;;17.73;100.00
32033;BME280;31720;52.638;9.216;2023-07-24T00:19:18;100161.75;;;17.74;100.00
32033;BME280;31720;52.638;9.216;2023-07-24T00:22:19;100151.25;;;17.72;100.00
32033;BME280;31720;52.638;9.216;2023-07-24T00:25:22;100151.34;;;17.71;100.00
32033;BME280;31720;52.638;9.216;2023-07-24T00:28:23;100145.66;;;17.75;100.00
32033;BME280;31720;52.638;9.216;2023-07-24T00:31:25;100144.69;;;17.77;100.00
32033;BME280;31720;52.638;9.216;2023-07-24T00:34:26;100138.13;;;17.81;100.00
32033;BME280;31720;52.638;9.216;2023-07-24T00:37:27;100148.28;;;17.95;100.00
32033;BME280;31720;52.638;9.216;2023-07-24T00:40:30;100147.16;;;17.97;100.00
32033;BME280;31720;52.638;9.216;2023-07-24T00:43:31;100147.44;;;17.94;100.00
32033;BME280;31720;52.638;9.216;2023-07-24T00:46:34;100151.06;;;17.93;100.00
32033;BME280;31720;52.638;9.216;2023-07-24T00:49:36;100152.22;;;17.91;100.00
32033;BME280;31720;52.638;9.216;2023-07-24T00:52:38;100144.25;;;17.91;100.00
32033;BME280;31720;52.638;9.216;2023-07-24T00:55:41;100154.59;;;17.84;100.00
32033;BME280;31720;52.638;9.216;2023-07-24T00:58:43;100149.44;;;17.83;100.00
32033;BME280;31720;52.638;9.216;2023-07-24T01:01:44;100143.44;;;17.81;100.00
32033;BME280;31720;52.638;9.216;2023-07-24T01:04:46;100144.38;;;17.70;100.00
32033;BME280;31720;52.638;9.216;2023-07-24T01:07:48;100143.25;;;17.72;100.00
32033;BME280;31720;52.638;9.216;2023-07-24T01:10:51;100139.22;;;17.68;100.00
32033;BME280;31720;52.638;9.216;2023-07-24T01:13:56;100134.06;;;17.77;100.00
32033;BME280;31720;52.638;9.216;2023-07-24T01:16:59;100138.66;;;17.74;100.00
32033;BME280;31720;52.638;9.216;2023-07-24T01:20:03;100140.88;;;17.69;100.00
32033;BME280;31720;52.638;9.216;2023-07-24T01:23:14;100136.56;;;17.68;100.00
32033;BME280;31720;52.638;9.216;2023-07-24T01:26:21;100134.34;;;17.73;100.00
32033;BME280;31720;52.638;9.216;2023-07-24T01:29:24;100133.34;;;17.74;100.00
32033;BME280;31720;52.638;9.216;2023-07-24T01:32:25;100130.69;;;17.74;100.00
32033;BME280;31720;52.638;9.216;2023-07-24T01:35:27;100125.50;;;17.73;100.00
32033;BME280;31720;52.638;9.216;2023-07-24T01:38:31;100122.72;;;17.74;100.00
32033;BME280;31720;52.638;9.216;2023-07-24T01:41:34;100123.28;;;17.78;100.00
32033;BME280;31720;52.638;9.216;2023-07-24T01:44:35;100121.88;;;17.74;100.00
32033;BME280;31720;52.638;9.216;2023-07-24T01:47:38;100119.63;;;17.69;100.00
32033;BME280;31720;52.638;9.216;2023-07-24T01:50:39;100110.66;;;17.70;100.00
32033;BME280;31720;52.638;9.216;2023-07-24T01:53:41;100109.41;;;17.65;100.00
32033;BME280;31720;52.638;9.216;2023-07-24T01:56:43;100116.56;;;17.64;100.00
32033;BME280;31720;52.638;9.216;2023-07-24T01:59:45;100118.22;;;17.65;100.00
32033;BME280;31720;52.638;9.216;2023-07-24T02:02:46;100111.81;;;17.68;100.00
32033;BME280;31720;52.638;9.216;2023-07-24T02:05:49;100110.97;;;17.77;100.00
32033;BME280;31720;52.638;9.216;2023-07-24T02:08:51;100106.22;;;17.81;100.00
32033;BME280;31720;52.638;9.216;2023-07-24T02:11:54;100107.19;;;17.80;100.00
32033;BME280;31720;52.638;9.216;2023-07-24T02:14:55;100107.16;;;17.70;100.00
32033;BME280;31720;52.638;9.216;2023-07-24T02:17:57;100105.50;;;17.69;100.00
32033;BME280;31720;52.638;9.216;2023-07-24T02:20:58;100108.16;;;17.69;100.00
32033;BME280;31720;52.638;9.216;2023-07-24T02:24:00;100102.28;;;17.75;100.00
32033;BME280;31720;52.638;9.216;2023-07-24T02:27:04;100103.97;;;17.86;100.00
32033;BME280;31720;52.638;9.216;2023-07-24T02:30:06;100104.09;;;17.84;100.00
32033;BME280;31720;52.638;9.216;2023-07-24T02:33:08;100101.16;;;17.87;100.00
32033;BME280;31720;52.638;9.216;2023-07-24T02:36:09;100099.59;;;17.85;100.00
32033;BME280;31720;52.638;9.216;2023-07-24T02:39:10;100102.25;;;17.85;100.00
32033;BME280;31720;52.638;9.216;2023-07-24T02:42:13;100105.47;;;17.88;100.00
32033;BME280;31720;52.638;9.216;2023-07-24T02:45:15;100104.47;;;17.89;100.00
32033;BME280;31720;52.638;9.216;2023-07-24T02:48:16;100094.72;;;17.80;100.00
32033;BME280;31720;52.638;9.216;2023-07-24T02:51:17;100082.72;;;17.76;100.00
32033;BME280;31720;52.638;9.216;2023-07-24T02:54:19;100091.94;;;17.82;100.00
32033;BME280;31720;52.638;9.216;2023-07-24T02:57:21;100106.66;;;17.76;100.00
32033;BME280;31720;52.638;9.216;2023-07-24T03:00:23;100101.19;;;17.68;100.00
32033;BME280;31720;52.638;9.216;2023-07-24T03:03:24;100098.34;;;17.69;100.00
32033;BME280;31720;52.638;9.216;2023-07-24T03:06:26;100088.88;;;17.67;100.00
32033;BME280;31720;52.638;9.216;2023-07-24T03:09:27;100097.53;;;17.69;100.00
32033;BME280;31720;52.638;9.216;2023-07-24T03:12:30;100097.69;;;17.67;100.00
32033;BME280;31720;52.638;9.216;2023-07-24T03:15:31;100098.34;;;17.69;100.00
32033;BME280;31720;52.638;9.216;2023-07-24T03:18:33;100095.31;;;17.74;100.00
32033;BME280;31720;52.638;9.216;2023-07-24T03:21:34;100100.75;;;17.72;100.00
32033;BME280;31720;52.638;9.216;2023-07-24T03:24:36;100092.38;;;17.67;100.00
32033;BME280;31720;52.638;9.216;2023-07-24T03:27:38;100080.91;;;17.67;100.00
32033;BME280;31720;52.638;9.216;2023-07-24T03:30:40;100076.81;;;17.72;100.00
32033;BME280;31720;52.638;9.216;2023-07-24T03:33:41;100082.41;;;17.69;100.00
32033;BME280;31720;52.638;9.216;2023-07-24T03:36:43;100082.16;;;17.63;100.00
32033;BME280;31720;52.638;9.216;2023-07-24T03:39:44;100074.47;;;17.60;100.00
32033;BME280;31720;52.638;9.216;2023-07-24T03:42:47;100073.38;;;17.62;100.00
32033;BME280;31720;52.638;9.216;2023-07-24T03:45:48;100071.53;;;17.63;100.00
32033;BME280;31720;52.638;9.216;2023-07-24T03:48:50;100074.31;;;17.61;100.00
32033;BME280;31720;52.638;9.216;2023-07-24T03:51:52;100073.22;;;17.64;100.00
32033;BME280;31720;52.638;9.216;2023-07-24T03:54:53;100056.97;;;17.67;100.00
32033;BME280;31720;52.638;9.216;2023-07-24T03:57:56;100058.22;;;17.72;100.00
32033;BME280;31720;52.638;9.216;2023-07-24T04:00:58;100055.56;;;17.72;100.00
32033;BME280;31720;52.638;9.216;2023-07-24T04:03:59;100044.94;;;17.72;100.00
32033;BME280;31720;52.638;9.216;2023-07-24T04:07:01;100051.38;;;17.70;100.00
32033;BME280;31720;52.638;9.216;2023-07-24T04:10:03;100049.97;;;17.75;100.00
32033;BME280;31720;52.638;9.216;2023-07-24T04:13:06;100052.06;;;17.72;100.00
32033;BME280;31720;52.638;9.216;2023-07-24T04:16:08;100043.97;;;17.73;100.00
32033;BME280;31720;52.638;9.216;2023-07-24T04:19:09;100050.84;;;17.76;100.00
32033;BME280;31720;52.638;9.216;2023-07-24T04:22:10;100048.84;;;17.78;100.00
32033;BME280;31720;52.638;9.216;2023-07-24T04:25:12;100055.41;;;17.84;100.00
32033;BME280;31720;52.638;9.216;2023-07-24T04:28:14;100040.16;;;17.86;100.00
32033;BME280;31720;52.638;9.216;2023-07-24T04:31:16;100042.13;;;17.84;100.00
32033;BME280;31720;52.638;9.216;2023-07-24T04:34:17;100037.63;;;17.84;100.00
32033;BME280;31720;52.638;9.216;2023-07-24T04:37:19;100034.84;;;17.86;100.00
32033;BME280;31720;52.638;9.216;2023-07-24T04:40:20;100029.94;;;17.91;100.00
32033;BME280;31720;52.638;9.216;2023-07-24T04:43:23;100023.22;;;17.87;100.00
32033;BME280;31720;52.638;9.216;2023-07-24T04:46:24;100015.25;;;17.87;100.00
32033;BME280;31720;52.638;9.216;2023-07-24T04:49:28;100014.69;;;17.83;100.00
32033;BME280;31720;52.638;9.216;2023-07-24T04:52:29;100004.34;;;17.90;100.00
32033;BME280;31720;52.638;9.216;2023-07-24T04:55:31;99997.19;;;17.90;100.00
32033;BME280;31720;52.638;9.216;2023-07-24T04:58:33;100001.50;;;17.91;100.00
32033;BME280;31720;52.638;9.216;2023-07-24T05:01:35;99996.03;;;17.93;100.00
32033;BME280;31720;52.638;9.216;2023-07-24T05:04:36;100006.94;;;17.99;100.00
32033;BME280;31720;52.638;9.216;2023-07-24T05:07:38;100000.88;;;18.07;100.00
32033;BME280;31720;52.638;9.216;2023-07-24T05:10:39;100002.69;;;18.07;100.00
32033;BME280;31720;52.638;9.216;2023-07-24T05:13:42;99993.59;;;18.09;100.00
32033;BME280;31720;52.638;9.216;2023-07-24T05:16:43;99988.81;;;18.13;100.00
32033;BME280;31720;52.638;9.216;2023-07-24T05:19:44;100000.28;;;18.13;100.00
32033;BME280;31720;52.638;9.216;2023-07-24T05:22:46;100001.72;;;18.08;100.00
32033;BME280;31720;52.638;9.216;2023-07-24T05:25:56;99996.25;;;18.09;100.00
32033;BME280;31720;52.638;9.216;2023-07-24T05:28:59;99986.59;;;18.08;100.00
32033;BME280;31720;52.638;9.216;2023-07-24T05:32:00;99988.13;;;18.11;100.00
32033;BME280;31720;52.638;9.216;2023-07-24T05:35:02;99983.94;;;18.08;100.00
32033;BME280;31720;52.638;9.216;2023-07-24T05:38:03;99974.53;;;18.14;100.00
32033;BME280;31720;52.638;9.216;2023-07-24T05:41:05;99976.34;;;18.13;100.00
32033;BME280;31720;52.638;9.216;2023-07-24T05:44:08;99974.69;;;18.12;100.00
32033;BME280;31720;52.638;9.216;2023-07-24T05:47:09;99983.78;;;18.10;100.00
32033;BME280;31720;52.638;9.216;2023-07-24T05:50:10;99978.47;;;18.10;100.00
32033;BME280;31720;52.638;9.216;2023-07-24T05:53:13;99960.53;;;18.12;100.00
32033;BME280;31720;52.638;9.216;2023-07-24T05:56:15;99963.19;;;18.12;100.00
32033;BME280;31720;52.638;9.216;2023-07-24T05:59:18;99954.53;;;18.10;100.00
32033;BME280;31720;52.638;9.216;2023-07-24T06:02:20;99956.66;;;18.06;100.00
32033;BME280;31720;52.638;9.216;2023-07-24T06:05:21;99958.75;;;18.03;100.00
32033;BME280;31720;52.638;9.216;2023-07-24T06:08:23;99951.94;;;18.00;100.00
32033;BME280;31720;52.638;9.216;2023-07-24T06:11:25;99952.22;;;17.97;100.00
32033;BME280;31720;52.638;9.216;2023-07-24T06:14:29;99951.56;;;17.95;100.00
32033;BME280;31720;52.638;9.216;2023-07-24T06:17:30;99960.34;;;17.95;100.00
32033;BME280;31720;52.638;9.216;2023-07-24T06:20:32;99959.28;;;17.88;100.00
32033;BME280;31720;52.638;9.216;2023-07-24T06:23:33;99967.41;;;17.87;100.00
32033;BME280;31720;52.638;9.216;2023-07-24T06:26:35;99981.41;;;17.79;100.00
32033;BME280;31720;52.638;9.216;2023-07-24T06:29:38;99987.59;;;17.70;100.00
32033;BME280;31720;52.638;9.216;2023-07-24T06:32:39;99979.66;;;17.60;100.00
32033;BME280;31720;52.638;9.216;2023-07-24T06:35:41;99968.91;;;17.52;100.00
32033;BME280;31720;52.638;9.216;2023-07-24T06:38:43;99981.50;;;17.50;100.00
32033;BME280;31720;52.638;9.216;2023-07-24T06:41:44;99970.06;;;17.49;100.00
32033;BME280;31720;52.638;9.216;2023-07-24T06:44:47;99969.22;;;17.49;100.00
32033;BME280;31720;52.638;9.216;2023-07-24T06:47:49;99977.19;;;17.49;100.00
32033;BME280;31720;52.638;9.216;2023-07-24T06:50:50;99968.78;;;17.44;100.00
32033;BME280;31720;52.638;9.216;2023-07-24T06:53:52;99970.63;;;17.43;100.00
32033;BME280;31720;52.638;9.216;2023-07-24T06:56:53;99968.13;;;17.42;100.00
32033;BME280;31720;52.638;9.216;2023-07-24T06:59:56;99968.94;;;17.42;100.00
32033;BME280;31720;52.638;9.216;2023-07-24T07:02:57;99965.19;;;17.45;100.00
32033;BME280;31720;52.638;9.216;2023-07-24T07:05:59;99973.97;;;17.45;100.00
32033;BME280;31720;52.638;9.216;2023-07-24T07:09:00;99969.78;;;17.43;100.00
32033;BME280;31720;52.638;9.216;2023-07-24T07:12:02;99952.41;;;17.48;100.00
32033;BME280;31720;52.638;9.216;2023-07-24T07:15:06;99956.06;;;17.47;100.00
32033;BME280;31720;52.638;9.216;2023-07-24T07:18:08;99959.72;;;17.46;100.00
32033;BME280;31720;52.638;9.216;2023-07-24T07:21:09;99955.22;;;17.47;100.00
32033;BME280;31720;52.638;9.216;2023-07-24T07:24:11;99953.72;;;17.44;100.00
32033;BME280;31720;52.638;9.216;2023-07-24T07:27:12;99959.03;;;17.44;100.00
32033;BME280;31720;52.638;9.216;2023-07-24T07:30:15;99960.00;;;17.43;100.00
32033;BME280;31720;52.638;9.216;2023-07-24T07:33:16;99960.00;;;17.43;100.00
32033;BME280;31720;52.638;9.216;2023-07-24T07:36:18;99969.94;;;17.41;100.00
32033;BME280;31720;52.638;9.216;2023-07-24T07:39:19;99967.56;;;17.38;100.00
32033;BME280;31720;52.638;9.216;2023-07-24T07:42:21;99967.88;;;17.35;100.00
32033;BME280;31720;52.638;9.216;2023-07-24T07:45:24;99966.88;;;17.36;100.00
32033;BME280;31720;52.638;9.216;2023-07-24T07:48:25;99968.28;;;17.40;100.00
32033;BME280;31720;52.638;9.216;2023-07-24T07:51:27;99981.41;;;17.42;100.00
32033;BME280;31720;52.638;9.216;2023-07-24T07:54:28;99983.63;;;17.46;100.00
32033;BME280;31720;52.638;9.216;2023-07-24T07:57:29;99983.84;;;17.53;100.00
32033;BME280;31720;52.638;9.216;2023-07-24T08:00:32;99988.22;;;17.54;100.00
32033;BME280;31720;52.638;9.216;2023-07-24T08:03:33;99975.72;;;17.64;100.00
32033;BME280;31720;52.638;9.216;2023-07-24T08:06:35;99982.84;;;17.73;100.00
32033;BME280;31720;52.638;9.216;2023-07-24T08:09:36;99979.59;;;17.80;100.00
32033;BME280;31720;52.638;9.216;2023-07-24T08:12:39;99985.31;;;17.85;100.00
32033;BME280;31720;52.638;9.216;2023-07-24T08:15:41;99982.19;;;17.89;100.00
32033;BME280;31720;52.638;9.216;2023-07-24T08:18:43;99995.03;;;17.94;100.00
32033;BME280;31720;52.638;9.216;2023-07-24T08:21:44;99985.34;;;17.75;100.00
32033;BME280;31720;52.638;9.216;2023-07-24T08:24:45;99990.00;;;17.63;100.00
32033;BME280;31720;52.638;9.216;2023-07-24T08:27:50;99994.38;;;17.55;100.00
32033;BME280;31720;52.638;9.216;2023-07-24T08:30:59;99990.75;;;17.46;100.00
32033;BME280;31720;52.638;9.216;2023-07-24T08:34:02;99990.47;;;17.49;100.00
32033;BME280;31720;52.638;9.216;2023-07-24T08:37:03;99984.72;;;17.54;100.00
32033;BME280;31720;52.638;9.216;2023-07-24T08:40:07;99980.91;;;17.56;100.00
32033;BME280;31720;52.638;9.216;2023-07-24T08:43:08;99979.22;;;17.65;100.00
32033;BME280;31720;52.638;9.216;2023-07-24T08:46:11;99974.28;;;17.70;100.00
32033;BME280;31720;52.638;9.216;2023-07-24T08:49:12;99970.41;;;17.74;100.00
32033;BME280;31720;52.638;9.216;2023-07-24T08:52:14;99975.28;;;17.79;100.00
32033;BME280;31720;52.638;9.216;2023-07-24T08:55:16;99967.41;;;17.87;100.00
32033;BME280;31720;52.638;9.216;2023-07-24T08:58:18;99965.22;;;18.00;100.00
32033;BME280;31720;52.638;9.216;2023-07-24T09:01:20;99967.66;;;18.11;100.00
32033;BME280;31720;52.638;9.216;2023-07-24T09:04:22;99967.75;;;18.19;100.00
32033;BME280;31720;52.638;9.216;2023-07-24T09:07:23;99954.47;;;18.19;100.00
32033;BME280;31720;52.638;9.216;2023-07-24T09:10:25;99959.78;;;18.19;100.00
32033;BME280;31720;52.638;9.216;2023-07-24T09:13:27;99955.84;;;18.23;100.00
32033;BME280;31720;52.638;9.216;2023-07-24T09:16:30;99956.50;;;18.25;100.00
32033;BME280;31720;52.638;9.216;2023-07-24T09:19:31;99953.19;;;18.23;100.00
32033;BME280;31720;52.638;9.216;2023-07-24T09:22:32;99957.50;;;18.24;100.00
32033;BME280;31720;52.638;9.216;2023-07-24T09:25:35;99956.38;;;18.27;100.00
32033;BME280;31720;52.638;9.216;2023-07-24T09:28:37;99961.34;;;18.40;100.00
32033;BME280;31720;52.638;9.216;2023-07-24T09:31:39;99957.38;;;18.44;100.00
32033;BME280;31720;52.638;9.216;2023-07-24T09:34:42;99949.47;;;18.52;100.00
32033;BME280;31720;52.638;9.216;2023-07-24T09:37:44;99945.06;;;18.61;100.00
32033;BME280;31720;52.638;9.216;2023-07-24T09:40:46;99934.56;;;18.59;100.00
32033;BME280;31720;52.638;9.216;2023-07-24T09:43:47;99935.25;;;18.61;100.00
32033;BME280;31720;52.638;9.216;2023-07-24T09:46:50;99943.56;;;18.58;100.00
32033;BME280;31720;52.638;9.216;2023-07-24T09:49:52;99939.97;;;18.49;100.00
32033;BME280;31720;52.638;9.216;2023-07-24T09:52:55;99935.31;;;18.51;100.00
32033;BME280;31720;52.638;9.216;2023-07-24T09:55:58;99934.88;;;18.56;100.00
32033;BME280;31720;52.638;9.216;2023-07-24T09:59:02;99935.19;;;18.53;100.00
32033;BME280;31720;52.638;9.216;2023-07-24T10:02:06;99928.03;;;18.54;100.00
32033;BME280;31720;52.638;9.216;2023-07-24T10:05:10;99923.63;;;18.62;100.00
32033;BME280;31720;52.638;9.216;2023-07-24T10:08:14;99934.28;;;18.62;100.00
32033;BME280;31720;52.638;9.216;2023-07-24T10:11:16;99937.59;;;18.64;100.00
32033;BME280;31720;52.638;9.216;2023-07-24T10:14:18;99945.88;;;18.61;100.00
32033;BME280;31720;52.638;9.216;2023-07-24T10:17:34;99945.06;;;18.61;100.00
32033;BME280;31720;52.638;9.216;2023-07-24T10:20:36;99939.72;;;18.61;100.00
32033;BME280;31720;52.638;9.216;2023-07-24T10:23:41;99941.03;;;18.57;100.00
32033;BME280;31720;52.638;9.216;2023-07-24T10:26:43;99940.81;;;18.50;100.00
32033;BME280;31720;52.638;9.216;2023-07-24T10:29:44;99931.09;;;18.41;100.00
32033;BME280;31720;52.638;9.216;2023-07-24T10:32:50;99940.72;;;18.42;100.00
32033;BME280;31720;52.638;9.216;2023-07-24T10:35:54;99924.75;;;18.42;100.00
32033;BME280;31720;52.638;9.216;2023-07-24T10:38:56;99927.25;;;18.43;100.00
32033;BME280;31720;52.638;9.216;2023-07-24T10:42:05;99922.09;;;18.42;100.00
32033;BME280;31720;52.638;9.216;2023-07-24T10:45:07;99927.25;;;18.43;100.00
32033;BME280;31720;52.638;9.216;2023-07-24T10:48:10;99921.47;;;18.48;100.00
32033;BME280;31720;52.638;9.216;2023-07-24T10:51:12;99911.25;;;18.53;100.00
32033;BME280;31720;52.638;9.216;2023-07-24T10:54:20;99909.63;;;18.60;100.00
32033;BME280;31720;52.638;9.216;2023-07-24T10:57:25;99901.00;;;18.84;100.00
32033;BME280;31720;52.638;9.216;2023-07-24T11:00:27;99906.66;;;19.07;100.00
32033;BME280;31720;52.638;9.216;2023-07-24T11:03:30;99910.00;;;19.09;100.00
32033;BME280;31720;52.638;9.216;2023-07-24T11:06:32;99903.63;;;19.28;100.00
32033;BME280;31720;52.638;9.216;2023-07-24T11:09:35;99901.19;;;19.09;100.00
32033;BME280;31720;52.638;9.216;2023-07-24T11:12:38;99900.84;;;19.38;100.00
32033;BME280;31720;52.638;9.216;2023-07-24T11:15:40;99897.72;;;19.50;100.00
32033;BME280;31720;52.638;9.216;2023-07-24T11:18:46;99885.47;;;19.66;100.00
32033;BME280;31720;52.638;9.216;2023-07-24T11:21:48;99902.53;;;19.81;100.00
32033;BME280;31720;52.638;9.216;2023-07-24T11:24:49;99892.22;;;19.86;100.00
32033;BME280;31720;52.638;9.216;2023-07-24T11:27:51;99891.75;;;19.91;100.00
32033;BME280;31720;52.638;9.216;2023-07-24T11:30:52;99892.72;;;19.98;100.00
32033;BME280;31720;52.638;9.216;2023-07-24T11:33:56;99888.59;;;19.95;100.00
32033;BME280;31720;52.638;9.216;2023-07-24T11:36:59;99883.59;;;20.09;100.00
32033;BME280;31720;52.638;9.216;2023-07-24T11:40:02;99876.28;;;20.19;100.00
32033;BME280;31720;52.638;9.216;2023-07-24T11:43:05;99875.81;;;20.40;100.00
32033;BME280;31720;52.638;9.216;2023-07-24T11:46:06;99882.00;;;20.65;100.00
32033;BME280;31720;52.638;9.216;2023-07-24T11:49:09;99878.16;;;20.67;100.00
32033;BME280;31720;52.638;9.216;2023-07-24T11:52:10;99875.44;;;20.92;100.00
32033;BME280;31720;52.638;9.216;2023-07-24T11:55:12;99877.41;;;21.06;100.00
32033;BME280;31720;52.638;9.216;2023-07-24T11:58:15;99874.59;;;20.99;100.00
32033;BME280;31720;52.638;9.216;2023-07-24T12:01:16;99876.25;;;21.09;100.00
32033;BME280;31720;52.638;9.216;2023-07-24T12:04:19;99873.28;;;20.95;100.00
32033;BME280;31720;52.638;9.216;2023-07-24T12:07:21;99872.47;;;20.78;100.00
32033;BME280;31720;52.638;9.216;2023-07-24T12:10:25;99865.66;;;20.60;100.00
32033;BME280;31720;52.638;9.216;2023-07-24T12:13:28;99874.13;;;20.47;100.00
32033;BME280;31720;52.638;9.216;2023-07-24T12:16:33;99880.28;;;20.23;100.00
32033;BME280;31720;52.638;9.216;2023-07-24T12:19:36;99880.75;;;20.10;100.00
32033;BME280;31720;52.638;9.216;2023-07-24T12:22:38;99875.75;;;20.07;100.00
32033;BME280;31720;52.638;9.216;2023-07-24T12:25:39;99879.78;;;20.03;100.00
32033;BME280;31720;52.638;9.216;2023-07-24T12:28:41;99880.44;;;20.05;100.00
32033;BME280;31720;52.638;9.216;2023-07-24T12:31:42;99874.63;;;20.18;100.00
32033;BME280;31720;52.638;9.216;2023-07-24T12:34:46;99861.44;;;20.41;100.00
32033;BME280;31720;52.638;9.216;2023-07-24T12:37:48;99861.28;;;20.75;100.00
32033;BME280;31720;52.638;9.216;2023-07-24T12:40:49;99853.44;;;20.73;100.00
32033;BME280;31720;52.638;9.216;2023-07-24T12:43:51;99852.13;;;20.69;100.00
32033;BME280;31720;52.638;9.216;2023-07-24T12:46:52;99849.44;;;20.61;100.00
32033;BME280;31720;52.638;9.216;2023-07-24T12:49:55;99858.13;;;20.63;100.00
32033;BME280;31720;52.638;9.216;2023-07-24T12:52:57;99850.78;;;20.65;100.00
32033;BME280;31720;52.638;9.216;2023-07-24T12:55:59;99845.63;;;20.64;100.00
32033;BME280;31720;52.638;9.216;2023-07-24T12:59:01;99827.91;;;20.46;100.00
32033;BME280;31720;52.638;9.216;2023-07-24T13:02:03;99830.59;;;20.38;100.00
32033;BME280;31720;52.638;9.216;2023-07-24T13:05:06;99829.25;;;20.42;100.00
32033;BME280;31720;52.638;9.216;2023-07-24T13:08:08;99822.94;;;20.35;100.00
32033;BME280;31720;52.638;9.216;2023-07-24T13:11:09;99827.41;;;20.35;100.00
32033;BME280;31720;52.638;9.216;2023-07-24T13:14:11;99833.25;;;20.30;100.00
32033;BME280;31720;52.638;9.216;2023-07-24T13:17:12;99833.75;;;20.42;100.00
32033;BME280;31720;52.638;9.216;2023-07-24T13:20:15;99840.28;;;20.47;100.00
32033;BME280;31720;52.638;9.216;2023-07-24T13:23:16;99832.78;;;20.51;100.00
32033;BME280;31720;52.638;9.216;2023-07-24T13:26:18;99842.81;;;20.49;100.00
32033;BME280;31720;52.638;9.216;2023-07-24T13:29:19;99843.47;;;20.51;100.00
32033;BME280;31720;52.638;9.216;2023-07-24T13:32:21;99822.78;;;20.53;100.00
32033;BME280;31720;52.638;9.216;2023-07-24T13:35:23;99819.91;;;20.46;100.00
32033;BME280;31720;52.638;9.216;2023-07-24T13:38:25;99837.94;;;20.44;100.00
32033;BME280;31720;52.638;9.216;2023-07-24T13:41:26;99827.09;;;20.46;100.00
32033;BME280;31720;52.638;9.216;2023-07-24T13:44:27;99840.44;;;20.38;100.00
32033;BME280;31720;52.638;9.216;2023-07-24T13:47:29;99829.25;;;20.34;100.00
32033;BME280;31720;52.638;9.216;2023-07-24T13:50:32;99829.09;;;20.27;100.00
32033;BME280;31720;52.638;9.216;2023-07-24T13:53:33;99813.75;;;20.21;100.00
32033;BME280;31720;52.638;9.216;2023-07-24T13:56:35;99811.25;;;20.20;100.00
32033;BME280;31720;52.638;9.216;2023-07-24T13:59:37;99812.06;;;20.20;100.00
32033;BME280;31720;52.638;9.216;2023-07-24T14:02:39;99829.41;;;20.16;100.00
32033;BME280;31720;52.638;9.216;2023-07-24T14:05:42;99827.44;;;20.18;100.00
32033;BME280;31720;52.638;9.216;2023-07-24T14:08:44;99828.75;;;20.14;100.00
32033;BME280;31720;52.638;9.216;2023-07-24T14:11:45;99825.56;;;20.02;100.00
32033;BME280;31720;52.638;9.216;2023-07-24T14:14:46;99806.06;;;19.94;100.00
32033;BME280;31720;52.638;9.216;2023-07-24T14:17:48;99804.91;;;19.96;100.00
32033;BME280;31720;52.638;9.216;2023-07-24T14:20:50;99788.38;;;19.93;100.00
32033;BME280;31720;52.638;9.216;2023-07-24T14:23:54;99783.41;;;19.90;100.00
32033;BME280;31720;52.638;9.216;2023-07-24T14:26:56;99775.22;;;19.91;100.00
32033;BME280;31720;52.638;9.216;2023-07-24T14:29:57;99768.72;;;19.94;100.00
32033;BME280;31720;52.638;9.216;2023-07-24T14:32:59;99731.38;;;19.94;100.00
32033;BME280;31720;52.638;9.216;2023-07-24T14:36:01;99714.19;;;20.29;100.00
32033;BME280;31720;52.638;9.216;2023-07-24T14:39:03;99706.47;;;20.59;100.00
32033;BME280;31720;52.638;9.216;2023-07-24T14:42:05;99702.78;;;20.60;100.00
32033;BME280;31720;52.638;9.216;2023-07-24T14:45:07;99721.34;;;20.53;100.00
32033;BME280;31720;52.638;9.216;2023-07-24T14:48:09;99719.50;;;20.45;100.00
32033;BME280;31720;52.638;9.216;2023-07-24T14:51:14;99723.69;;;20.40;100.00
32033;BME280;31720;52.638;9.216;2023-07-24T14:54:15;99715.00;;;20.38;100.00
32033;BME280;31720;52.638;9.216;2023-07-24T14:57:16;99737.03;;;20.40;100.00
32033;BME280;31720;52.638;9.216;2023-07-24T15:00:18;99758.72;;;20.28;100.00
32033;BME280;31720;52.638;9.216;2023-07-24T15:03:19;99740.91;;;20.13;100.00
32033;BME280;31720;52.638;9.216;2023-07-24T15:06:22;99727.56;;;20.13;100.00
32033;BME280;31720;52.638;9.216;2023-07-24T15:09:23;99716.84;;;20.21;100.00
32033;BME280;31720;52.638;9.216;2023-07-24T15:12:25;99710.34;;;20.40;100.00
32033;BME280;31720;52.638;9.216;2023-07-24T15:15:26;99719.31;;;20.47;100.00
32033;BME280;31720;52.638;9.216;2023-07-24T15:18:28;99718.50;;;20.55;100.00
32033;BME280;31720;52.638;9.216;2023-07-24T15:21:31;99724.06;;;20.84;100.00
32033;BME280;31720;52.638;9.216;2023-07-24T15:24:32;99724.53;;;20.96;100.00
32033;BME280;31720;52.638;9.216;2023-07-24T15:27:34;99717.34;;;20.96;100.00
32033;BME280;31720;52.638;9.216;2023-07-24T15:30:35;99710.50;;;20.94;100.00
32033;BME280;31720;52.638;9.216;2023-07-24T15:33:36;99704.97;;;21.03;100.00
32033;BME280;31720;52.638;9.216;2023-07-24T15:36:39;99697.25;;;21.09;100.00
32033;BME280;31720;52.638;9.216;2023-07-24T15:39:41;99707.09;;;21.08;100.00
32033;BME280;31720;52.638;9.216;2023-07-24T15:42:42;99712.44;;;21.08;100.00
32033;BME280;31720;52.638;9.216;2023-07-24T15:45:44;99705.91;;;21.11;100.00
32033;BME280;31720;52.638;9.216;2023-07-24T15:48:46;99708.72;;;21.17;100.00